sensor_id;sensor_type;location;lat;lon;timestamp;pressure;altitude;pressure_sealevel;temperature;humidity
48824;BME280;34640;53.590;10.054;2022-10-31T00:00:39;101416.59;;;11.98;100.00
48824;BME280;34640;53.590;10.054;2022-10-31T00:03:14;101413.09;;;11.97;100.00
48824;BME280;34640;53.590;10.054;2022-10-31T00:05:49;101416.59;;;11.98;100.00
48824;BME280;34640;53.590;10.054;2022-10-31T00:08:24;101413.88;;;11.96;100.00
48824;BME280;34640;53.590;10.054;2022-10-31T00:10:57;101421.72;;;11.96;100.00
48824;BME280;34640;53.590;10.054;2022-10-31T00:13:31;101418.19;;;11.96;100.00
48824;BME280;34640;53.590;10.054;2022-10-31T00:16:13;101419.09;;;11.96;100.00
48824;BME280;34640;53.590;10.054;2022-10-31T00:18:47;101423.44;;;11.96;100.00
48824;BME280;34640;53.590;10.054;2022-10-31T00:21:22;101420.00;;;11.97;100.00
48824;BME280;34640;53.590;10.054;2022-10-31T00:23:58;101419.91;;;11.95;100.00
48824;BME280;34640;53.590;10.054;2022-10-31T00:26:32;101421.72;;;11.96;100.00
48824;BME280;34640;53.590;10.054;2022-10-31T00:29:06;101431.25;;;11.96;100.00
48824;BME280;34640;53.590;10.054;2022-10-31T00:31:40;101421.63;;;11.95;100.00
48824;BME280;34640;53.590;10.054;2022-10-31T00:34:13;101432.72;;;11.92;100.00
48824;BME280;34640;53.590;10.054;2022-10-31T00:36:47;101425.72;;;11.91;100.00
48824;BME280;34640;53.590;10.054;2022-10-31T00:39:22;101442.19;;;11.90;100.00
48824;BME280;34640;53.590;10.054;2022-10-31T00:41:55;101425.63;;;11.89;100.00
48824;BME280;34640;53.590;10.054;2022-10-31T00:44:29;101434.25;;;11.88;100.00
48824;BME280;34640;53.590;10.054;2022-10-31T00:47:03;101437.75;;;11.89;100.00
48824;BME280;34640;53.590;10.054;2022-10-31T00:49:36;101425.53;;;11.88;100.00
48824;BME280;34640;53.590;10.054;2022-10-31T00:52:10;101425.53;;;11.88;100.00
48824;BME280;34640;53.590;10.054;2022-10-31T00:54:45;101409.38;;;11.93;100.00
48824;BME280;34640;53.590;10.054;2022-10-31T00:57:19;101417.69;;;12.01;100.00
48824;BME280;34640;53.590;10.054;2022-10-31T00:59:52;101415.97;;;12.02;100.00
48824;BME280;34640;53.590;10.054;2022-10-31T01:02:26;101427.31;;;12.02;100.00
48824;BME280;34640;53.590;10.054;2022-10-31T01:05:00;101429.84;;;12.01;100.00
48824;BME280;34640;53.590;10.054;2022-10-31T01:07:35;101428.03;;;12.00;100.00
48824;BME280;34640;53.590;10.054;2022-10-31T01:10:11;101438.47;;;12.00;100.00
48824;BME280;34640;53.590;10.054;2022-10-31T01:12:47;101438.38;;;11.98;100.00
48824;BME280;34640;53.590;10.054;2022-10-31T01:15:22;101434.06;;;11.99;100.00
48824;BME280;34640;53.590;10.054;2022-10-31T01:17:55;101442.19;;;12.03;100.00
48824;BME280;34640;53.590;10.054;2022-10-31T01:20:29;101448.41;;;12.05;100.00
48824;BME280;34640;53.590;10.054;2022-10-31T01:23:03;101445.78;;;12.05;100.00
48824;BME280;34640;53.590;10.054;2022-10-31T01:25:38;101448.69;;;12.10;100.00
48824;BME280;34640;53.590;10.054;2022-10-31T01:28:12;101455.00;;;12.13;100.00
48824;BME280;34640;53.590;10.054;2022-10-31T01:30:46;101462.34;;;12.19;100.00
48824;BME280;34640;53.590;10.054;2022-10-31T01:33:19;101459.22;;;12.24;100.00
48824;BME280;34640;53.590;10.054;2022-10-31T01:35:53;101465.63;;;12.30;100.00
48824;BME280;34640;53.590;10.054;2022-10-31T01:38:27;101469.66;;;12.38;100.00
48824;BME280;34640;53.590;10.054;2022-10-31T01:41:02;101470.94;;;12.44;100.00
48824;BME280;34640;53.590;10.054;2022-10-31T01:43:43;101474.75;;;12.49;100.00
48824;BME280;34640;53.590;10.054;2022-10-31T01:46:20;101479.53;;;12.57;100.00
48824;BME280;34640;53.590;10.054;2022-10-31T01:48:55;101465.38;;;12.66;100.00
48824;BME280;34640;53.590;10.054;2022-10-31T01:51:33;101469.25;;;12.73;100.00
48824;BME280;34640;53.590;10.054;2022-10-31T01:54:12;101473.25;;;12.81;100.00
48824;BME280;34640;53.590;10.054;2022-10-31T01:56:52;101482.38;;;12.88;100.00
48824;BME280;34640;53.590;10.054;2022-10-31T01:59:29;101482.56;;;12.91;100.00
48824;BME280;34640;53.590;10.054;2022-10-31T02:02:05;101491.41;;;12.93;100.00
48824;BME280;34640;53.590;10.054;2022-10-31T02:04:40;101493.91;;;12.91;100.00
48824;BME280;34640;53.590;10.054;2022-10-31T02:07:17;101494.00;;;12.93;100.00
48824;BME280;34640;53.590;10.054;2022-10-31T02:09:55;101494.91;;;12.93;100.00
48824;BME280;34640;53.590;10.054;2022-10-31T02:12:32;101494.81;;;12.92;100.00
48824;BME280;34640;53.590;10.054;2022-10-31T02:15:09;101487.88;;;12.92;100.00
48824;BME280;34640;53.590;10.054;2022-10-31T02:17:43;101498.34;;;12.92;100.00
48824;BME280;34640;53.590;10.054;2022-10-31T02:20:18;101503.47;;;12.91;100.00
48824;BME280;34640;53.590;10.054;2022-10-31T02:23:11;101497.34;;;12.90;100.00
48824;BME280;34640;53.590;10.054;2022-10-31T02:29:16;101501.69;;;12.90;100.00
48824;BME280;34640;53.590;10.054;2022-10-31T02:31:59;101499.88;;;12.89;100.00
48824;BME280;34640;53.590;10.054;2022-10-31T02:34:37;101507.63;;;12.87;100.00
48824;BME280;34640;53.590;10.054;2022-10-31T02:37:14;101508.53;;;12.88;100.00
48824;BME280;34640;53.590;10.054;2022-10-31T02:39:55;101516.38;;;12.88;100.00
48824;BME280;34640;53.590;10.054;2022-10-31T02:42:34;101512.13;;;12.90;100.00
48824;BME280;34640;53.590;10.054;2022-10-31T02:45:17;101517.53;;;12.93;100.00
48824;BME280;34640;53.590;10.054;2022-10-31T02:47:58;101519.34;;;12.94;100.00
48824;BME280;34640;53.590;10.054;2022-10-31T02:50:37;101514.94;;;12.93;100.00
48824;BME280;34640;53.590;10.054;2022-10-31T02:53:13;101518.34;;;12.92;100.00
48824;BME280;34640;53.590;10.054;2022-10-31T02:55:56;101521.69;;;12.89;100.00
48824;BME280;34640;53.590;10.054;2022-10-31T02:58:33;101510.31;;;12.89;100.00
48824;BME280;34640;53.590;10.054;2022-10-31T03:01:36;101522.50;;;12.88;100.00
48824;BME280;34640;53.590;10.054;2022-10-31T03:07:21;101521.22;;;12.81;100.00
48824;BME280;34640;53.590;10.054;2022-10-31T03:10:03;101532.34;;;12.79;100.00
48824;BME280;34640;53.590;10.054;2022-10-31T03:12:40;101532.16;;;12.76;100.00
48824;BME280;34640;53.590;10.054;2022-10-31T03:15:23;101534.69;;;12.74;100.00
48824;BME280;34640;53.590;10.054;2022-10-31T03:18:02;101532.88;;;12.73;100.00
48824;BME280;34640;53.590;10.054;2022-10-31T03:20:42;101541.63;;;12.74;100.00
48824;BME280;34640;53.590;10.054;2022-10-31T03:23:20;101540.72;;;12.73;100.00
48824;BME280;34640;53.590;10.054;2022-10-31T03:25:55;101540.72;;;12.73;100.00
48824;BME280;34640;53.590;10.054;2022-10-31T03:28:31;101543.34;;;12.73;100.00
48824;BME280;34640;53.590;10.054;2022-10-31T03:31:07;101543.94;;;12.69;100.00
48824;BME280;34640;53.590;10.054;2022-10-31T03:33:42;101550.00;;;12.68;100.00
48824;BME280;34640;53.590;10.054;2022-10-31T03:36:18;101545.47;;;12.66;100.00
48824;BME280;34640;53.590;10.054;2022-10-31T03:38:53;101553.22;;;12.64;100.00
48824;BME280;34640;53.590;10.054;2022-10-31T03:41:31;101553.13;;;12.63;100.00
48824;BME280;34640;53.590;10.054;2022-10-31T03:44:10;101555.81;;;12.64;100.00
48824;BME280;34640;53.590;10.054;2022-10-31T03:46:45;101564.28;;;12.60;100.00
48824;BME280;34640;53.590;10.054;2022-10-31T03:49:20;101565.09;;;12.59;100.00
48824;BME280;34640;53.590;10.054;2022-10-31T03:51:58;101565.78;;;12.57;100.00
48824;BME280;34640;53.590;10.054;2022-10-31T03:54:39;101571.81;;;12.55;100.00
48824;BME280;34640;53.590;10.054;2022-10-31T03:57:17;101574.50;;;12.57;100.00
48824;BME280;34640;53.590;10.054;2022-10-31T03:59:55;101583.25;;;12.58;100.00
48824;BME280;34640;53.590;10.054;2022-10-31T04:02:32;101584.06;;;12.57;100.00
48824;BME280;34640;53.590;10.054;2022-10-31T04:05:08;101589.19;;;12.55;100.00
48824;BME280;34640;53.590;10.054;2022-10-31T04:07:47;101592.59;;;12.54;100.00
48824;BME280;34640;53.590;10.054;2022-10-31T04:10:25;101596.94;;;12.53;100.00
48824;BME280;34640;53.590;10.054;2022-10-31T04:13:07;101592.03;;;12.58;100.00
48824;BME280;34640;53.590;10.054;2022-10-31T04:15:43;101594.75;;;12.60;100.00
48824;BME280;34640;53.590;10.054;2022-10-31T04:18:18;101601.88;;;12.62;100.00
48824;BME280;34640;53.590;10.054;2022-10-31T04:21:00;101606.19;;;12.62;100.00
48824;BME280;34640;53.590;10.054;2022-10-31T04:23:36;101604.28;;;12.59;100.00
48824;BME280;34640;53.590;10.054;2022-10-31T04:26:11;101604.38;;;12.61;100.00
48824;BME280;34640;53.590;10.054;2022-10-31T04:28:45;101607.72;;;12.58;100.00
48824;BME280;34640;53.590;10.054;2022-10-31T04:31:19;101598.03;;;12.57;100.00
48824;BME280;34640;53.590;10.054;2022-10-31T04:33:52;101603.25;;;12.57;100.00
48824;BME280;34640;53.590;10.054;2022-10-31T04:36:26;101605.88;;;12.57;100.00
48824;BME280;34640;53.590;10.054;2022-10-31T04:39:01;101604.47;;;12.62;100.00
48824;BME280;34640;53.590;10.054;2022-10-31T04:41:35;101606.28;;;12.63;100.00
48824;BME280;34640;53.590;10.054;2022-10-31T04:44:08;101605.47;;;12.64;100.00
48824;BME280;34640;53.590;10.054;2022-10-31T04:46:42;101612.53;;;12.65;100.00
48824;BME280;34640;53.590;10.054;2022-10-31T04:49:15;101607.19;;;12.64;100.00
48824;BME280;34640;53.590;10.054;2022-10-31T04:51:49;101612.72;;;12.68;100.00
48824;BME280;34640;53.590;10.054;2022-10-31T04:54:24;101612.09;;;12.72;100.00
48824;BME280;34640;53.590;10.054;2022-10-31T04:56:58;101617.63;;;12.77;100.00
48824;BME280;34640;53.590;10.054;2022-10-31T04:59:31;101615.22;;;12.80;100.00
48824;BME280;34640;53.590;10.054;2022-10-31T05:02:05;101613.81;;;12.85;100.00
48824;BME280;34640;53.590;10.054;2022-10-31T05:04:39;101625.34;;;12.89;100.00
48824;BME280;34640;53.590;10.054;2022-10-31T05:07:12;101625.66;;;12.93;100.00
48824;BME280;34640;53.590;10.054;2022-10-31T05:09:47;101616.38;;;12.98;100.00
48824;BME280;34640;53.590;10.054;2022-10-31T05:12:21;101609.94;;;13.06;100.00
48824;BME280;34640;53.590;10.054;2022-10-31T05:14:54;101615.25;;;13.08;100.00
48824;BME280;34640;53.590;10.054;2022-10-31T05:17:28;101615.44;;;13.11;100.00
48824;BME280;34640;53.590;10.054;2022-10-31T05:20:02;101616.44;;;13.13;100.00
48824;BME280;34640;53.590;10.054;2022-10-31T05:22:36;101616.53;;;13.14;100.00
48824;BME280;34640;53.590;10.054;2022-10-31T05:25:11;101620.97;;;13.15;100.00
48824;BME280;34640;53.590;10.054;2022-10-31T05:27:47;101625.53;;;13.18;100.00
48824;BME280;34640;53.590;10.054;2022-10-31T05:30:22;101619.25;;;13.16;100.00
48824;BME280;34640;53.590;10.054;2022-10-31T05:32:57;101626.28;;;13.17;100.00
48824;BME280;34640;53.590;10.054;2022-10-31T05:35:32;101629.03;;;13.19;100.00
48824;BME280;34640;53.590;10.054;2022-10-31T05:38:06;101630.94;;;13.21;100.00
48824;BME280;34640;53.590;10.054;2022-10-31T05:40:41;101626.75;;;13.23;100.00
48824;BME280;34640;53.590;10.054;2022-10-31T05:43:15;101625.03;;;13.24;100.00
48824;BME280;34640;53.590;10.054;2022-10-31T05:45:51;101623.81;;;13.19;100.00
48824;BME280;34640;53.590;10.054;2022-10-31T05:48:25;101617.66;;;13.18;100.00
48824;BME280;34640;53.590;10.054;2022-10-31T05:50:59;101611.94;;;13.24;100.00
48824;BME280;34640;53.590;10.054;2022-10-31T05:53:32;101622.50;;;13.25;100.00
48824;BME280;34640;53.590;10.054;2022-10-31T05:56:07;101619.38;;;13.18;100.00
48824;BME280;34640;53.590;10.054;2022-10-31T05:58:41;101628.31;;;13.21;100.00
48824;BME280;34640;53.590;10.054;2022-10-31T06:01:15;101627.63;;;13.24;100.00
48824;BME280;34640;53.590;10.054;2022-10-31T06:03:48;101628.63;;;13.26;100.00
48824;BME280;34640;53.590;10.054;2022-10-31T06:06:22;101624.13;;;13.23;100.00
48824;BME280;34640;53.590;10.054;2022-10-31T06:08:56;101635.34;;;13.22;100.00
48824;BME280;34640;53.590;10.054;2022-10-31T06:11:31;101638.09;;;13.24;100.00
48824;BME280;34640;53.590;10.054;2022-10-31T06:14:05;101640.81;;;13.25;100.00
48824;BME280;34640;53.590;10.054;2022-10-31T06:16:39;101638.19;;;13.25;100.00
48824;BME280;34640;53.590;10.054;2022-10-31T06:19:12;101639.19;;;13.27;100.00
48824;BME280;34640;53.590;10.054;2022-10-31T06:21:46;101635.59;;;13.25;100.00
48824;BME280;34640;53.590;10.054;2022-10-31T06:24:19;101647.13;;;13.29;100.00
48824;BME280;34640;53.590;10.054;2022-10-31T06:26:54;101653.88;;;13.25;100.00
48824;BME280;34640;53.590;10.054;2022-10-31T06:29:28;101653.56;;;13.34;100.00
48824;BME280;34640;53.590;10.054;2022-10-31T06:32:01;101653.66;;;13.35;100.00
48824;BME280;34640;53.590;10.054;2022-10-31T06:34:35;101652.84;;;13.36;100.00
48824;BME280;34640;53.590;10.054;2022-10-31T06:37:10;101648.31;;;13.34;100.00
48824;BME280;34640;53.590;10.054;2022-10-31T06:39:43;101645.63;;;13.32;100.00
48824;BME280;34640;53.590;10.054;2022-10-31T06:42:18;101648.31;;;13.34;100.00
48824;BME280;34640;53.590;10.054;2022-10-31T06:44:52;101659.16;;;13.40;100.00
48824;BME280;34640;53.590;10.054;2022-10-31T06:47:26;101666.00;;;13.38;100.00
48824;BME280;34640;53.590;10.054;2022-10-31T06:49:59;101662.50;;;13.37;100.00
48824;BME280;34640;53.590;10.054;2022-10-31T06:52:33;101665.19;;;13.39;100.00
48824;BME280;34640;53.590;10.054;2022-10-31T06:55:07;101666.38;;;13.44;100.00
48824;BME280;34640;53.590;10.054;2022-10-31T06:57:42;101675.56;;;13.51;100.00
48824;BME280;34640;53.590;10.054;2022-10-31T07:00:16;101684.41;;;13.53;100.00
48824;BME280;34640;53.590;10.054;2022-10-31T07:02:54;101682.59;;;13.52;100.00
48824;BME280;34640;53.590;10.054;2022-10-31T07:05:29;101690.53;;;13.53;100.00
48824;BME280;34640;53.590;10.054;2022-10-31T07:08:06;101694.69;;;13.50;100.00
48824;BME280;34640;53.590;10.054;2022-10-31T07:10:42;101695.59;;;13.50;100.00
48824;BME280;34640;53.590;10.054;2022-10-31T07:13:17;101694.97;;;13.54;100.00
48824;BME280;34640;53.590;10.054;2022-10-31T07:15:58;101703.00;;;13.57;100.00
48824;BME280;34640;53.590;10.054;2022-10-31T07:18:32;101704.81;;;13.58;100.00
48824;BME280;34640;53.590;10.054;2022-10-31T07:21:06;101714.47;;;13.59;100.00
48824;BME280;34640;53.590;10.054;2022-10-31T07:23:40;101707.78;;;13.64;100.00
48824;BME280;34640;53.590;10.054;2022-10-31T07:26:13;101714.47;;;13.59;100.00
48824;BME280;34640;53.590;10.054;2022-10-31T07:28:48;101710.03;;;13.58;100.00
48824;BME280;34640;53.590;10.054;2022-10-31T07:31:22;101717.19;;;13.61;100.00
48824;BME280;34640;53.590;10.054;2022-10-31T07:33:56;101719.50;;;13.69;100.00
48824;BME280;34640;53.590;10.054;2022-10-31T07:36:30;101717.06;;;13.72;100.00
48824;BME280;34640;53.590;10.054;2022-10-31T07:39:04;101711.72;;;13.71;100.00
48824;BME280;34640;53.590;10.054;2022-10-31T07:41:38;101719.03;;;13.76;100.00
48824;BME280;34640;53.590;10.054;2022-10-31T07:44:13;101712.72;;;13.73;100.00
48824;BME280;34640;53.590;10.054;2022-10-31T07:46:46;101717.59;;;13.67;100.00
48824;BME280;34640;53.590;10.054;2022-10-31T07:49:20;101720.19;;;13.67;100.00
48824;BME280;34640;53.590;10.054;2022-10-31T07:51:55;101725.94;;;13.61;100.00
48824;BME280;34640;53.590;10.054;2022-10-31T07:54:28;101729.56;;;13.63;100.00
48824;BME280;34640;53.590;10.054;2022-10-31T07:57:02;101730.16;;;13.72;100.00
48824;BME280;34640;53.590;10.054;2022-10-31T07:59:37;101736.75;;;13.81;100.00
48824;BME280;34640;53.590;10.054;2022-10-31T08:02:11;101734.22;;;13.82;100.00
48824;BME280;34640;53.590;10.054;2022-10-31T08:04:44;101731.69;;;13.84;100.00
48824;BME280;34640;53.590;10.054;2022-10-31T08:07:18;101725.66;;;13.85;100.00
48824;BME280;34640;53.590;10.054;2022-10-31T08:09:52;101725.34;;;13.93;100.00
48824;BME280;34640;53.590;10.054;2022-10-31T08:12:26;101724.78;;;13.99;100.00
48824;BME280;34640;53.590;10.054;2022-10-31T08:15:00;101720.59;;;13.88;100.00
48824;BME280;34640;53.590;10.054;2022-10-31T08:17:35;101725.25;;;13.92;100.00
48824;BME280;34640;53.590;10.054;2022-10-31T08:20:09;101725.25;;;13.92;100.00
48824;BME280;34640;53.590;10.054;2022-10-31T08:22:52;101733.00;;;13.90;100.00
48824;BME280;34640;53.590;10.054;2022-10-31T08:25:27;101729.38;;;13.88;100.00
48824;BME280;34640;53.590;10.054;2022-10-31T08:28:08;101715.63;;;13.77;100.00
48824;BME280;34640;53.590;10.054;2022-10-31T08:30:43;101723.94;;;13.85;100.00
48824;BME280;34640;53.590;10.054;2022-10-31T08:33:18;101719.84;;;14.03;100.00
48824;BME280;34640;53.590;10.054;2022-10-31T08:35:52;101733.66;;;14.01;100.00
48824;BME280;34640;53.590;10.054;2022-10-31T08:38:25;101734.19;;;13.95;100.00
48824;BME280;34640;53.590;10.054;2022-10-31T08:40:59;101736.81;;;13.95;100.00
48824;BME280;34640;53.590;10.054;2022-10-31T08:43:33;101744.28;;;13.89;100.00
48824;BME280;34640;53.590;10.054;2022-10-31T08:46:08;101746.91;;;13.89;100.00
48824;BME280;34640;53.590;10.054;2022-10-31T08:48:42;101742.97;;;13.83;100.00
48824;BME280;34640;53.590;10.054;2022-10-31T08:51:16;101742.97;;;13.83;100.00
48824;BME280;34640;53.590;10.054;2022-10-31T08:53:49;101746.94;;;13.76;100.00
48824;BME280;34640;53.590;10.054;2022-10-31T08:56:23;101744.22;;;13.74;100.00
48824;BME280;34640;53.590;10.054;2022-10-31T08:58:57;101734.47;;;13.72;100.00
48824;BME280;34640;53.590;10.054;2022-10-31T09:01:32;101735.41;;;13.87;100.00
48824;BME280;34640;53.590;10.054;2022-10-31T09:04:06;101735.72;;;13.92;100.00
48824;BME280;34640;53.590;10.054;2022-10-31T09:06:39;101734.91;;;13.93;100.00
48824;BME280;34640;53.590;10.054;2022-10-31T09:09:27;101733.59;;;13.86;100.00
48824;BME280;34640;53.590;10.054;2022-10-31T09:12:00;101733.69;;;13.88;100.00
48824;BME280;34640;53.590;10.054;2022-10-31T09:14:34;101726.88;;;13.90;100.00
48824;BME280;34640;53.590;10.054;2022-10-31T09:17:09;101728.75;;;13.92;100.00
48824;BME280;34640;53.590;10.054;2022-10-31T09:19:42;101736.09;;;13.98;100.00
48824;BME280;34640;53.590;10.054;2022-10-31T09:22:16;101726.06;;;13.91;100.00
48824;BME280;34640;53.590;10.054;2022-10-31T09:24:50;101716.31;;;14.03;100.00
48824;BME280;34640;53.590;10.054;2022-10-31T09:27:23;101715.59;;;14.05;100.00
48824;BME280;34640;53.590;10.054;2022-10-31T09:29:57;101724.66;;;14.11;100.00
48824;BME280;34640;53.590;10.054;2022-10-31T09:32:32;101715.72;;;14.22;100.00
48824;BME280;34640;53.590;10.054;2022-10-31T09:35:06;101724.50;;;14.37;100.00
48824;BME280;34640;53.590;10.054;2022-10-31T09:37:40;101724.25;;;14.47;100.00
48824;BME280;34640;53.590;10.054;2022-10-31T09:40:14;101722.63;;;14.49;100.00
48824;BME280;34640;53.590;10.054;2022-10-31T09:42:54;101721.56;;;14.60;100.00
48824;BME280;34640;53.590;10.054;2022-10-31T09:45:32;101723.63;;;14.66;100.00
48824;BME280;34640;53.590;10.054;2022-10-31T09:48:35;101724.28;;;14.77;100.00
48824;BME280;34640;53.590;10.054;2022-10-31T09:51:13;101739.63;;;14.85;100.00
48824;BME280;34640;53.590;10.054;2022-10-31T09:53:51;101748.09;;;14.96;100.00
48824;BME280;34640;53.590;10.054;2022-10-31T09:56:28;101745.84;;;15.02;100.00
48824;BME280;34640;53.590;10.054;2022-10-31T09:59:10;101749.22;;;15.00;100.00
48824;BME280;34640;53.590;10.054;2022-10-31T10:01:47;101744.06;;;14.86;100.00
48824;BME280;34640;53.590;10.054;2022-10-31T10:04:36;101754.38;;;14.83;100.00
48824;BME280;34640;53.590;10.054;2022-10-31T10:07:21;101757.25;;;14.88;100.00
48824;BME280;34640;53.590;10.054;2022-10-31T10:09:56;101762.16;;;14.82;100.00
48824;BME280;34640;53.590;10.054;2022-10-31T10:12:39;101761.81;;;14.76;100.00
48824;BME280;34640;53.590;10.054;2022-10-31T10:16:02;101753.09;;;14.91;100.00
48824;BME280;34640;53.590;10.054;2022-10-31T10:18:44;101760.53;;;14.98;100.00
48824;BME280;34640;53.590;10.054;2022-10-31T10:21:32;101756.44;;;14.89;100.00
48824;BME280;34640;53.590;10.054;2022-10-31T10:24:20;101755.91;;;14.80;100.00
48824;BME280;34640;53.590;10.054;2022-10-31T10:27:05;101751.75;;;14.83;100.00
48824;BME280;34640;53.590;10.054;2022-10-31T10:29:45;101756.34;;;15.02;100.00
48824;BME280;34640;53.590;10.054;2022-10-31T10:32:23;101756.09;;;15.28;100.00
48824;BME280;34640;53.590;10.054;2022-10-31T10:35:01;101757.47;;;15.53;100.00
48824;BME280;34640;53.590;10.054;2022-10-31T10:37:43;101747.38;;;15.44;100.00
48824;BME280;34640;53.590;10.054;2022-10-31T10:40:20;101754.06;;;15.39;100.00
48824;BME280;34640;53.590;10.054;2022-10-31T10:43:01;101745.03;;;15.34;100.00
48824;BME280;34640;53.590;10.054;2022-10-31T10:46:03;101744.22;;;15.35;100.00
48824;BME280;34640;53.590;10.054;2022-10-31T10:49:00;101738.72;;;15.31;100.00
48824;BME280;34640;53.590;10.054;2022-10-31T10:51:41;101735.94;;;15.27;100.00
48824;BME280;34640;53.590;10.054;2022-10-31T10:54:46;101730.13;;;15.33;100.00
48824;BME280;34640;53.590;10.054;2022-10-31T10:57:33;101722.50;;;15.69;100.00
48824;BME280;34640;53.590;10.054;2022-10-31T11:00:18;101718.81;;;15.65;100.00
48824;BME280;34640;53.590;10.054;2022-10-31T11:02:53;101721.69;;;15.55;100.00
48824;BME280;34640;53.590;10.054;2022-10-31T11:05:33;101724.13;;;15.36;100.00
48824;BME280;34640;53.590;10.054;2022-10-31T11:08:08;101724.59;;;15.59;100.00
48824;BME280;34640;53.590;10.054;2022-10-31T11:10:43;101723.16;;;15.65;100.00
48824;BME280;34640;53.590;10.054;2022-10-31T11:13:21;101726.22;;;15.41;100.00
48824;BME280;34640;53.590;10.054;2022-10-31T11:16:00;101718.50;;;15.44;100.00
48824;BME280;34640;53.590;10.054;2022-10-31T11:18:37;101713.66;;;15.67;100.00
48824;BME280;34640;53.590;10.054;2022-10-31T11:21:21;101711.41;;;15.27;100.00
48824;BME280;34640;53.590;10.054;2022-10-31T11:24:02;101702.25;;;15.04;100.00
48824;BME280;34640;53.590;10.054;2022-10-31T11:26:38;101700.78;;;14.94;100.00
48824;BME280;34640;53.590;10.054;2022-10-31T11:29:19;101702.41;;;15.07;100.00
48824;BME280;34640;53.590;10.054;2022-10-31T11:31:55;101700.13;;;15.13;100.00
48824;BME280;34640;53.590;10.054;2022-10-31T11:34:32;101692.91;;;15.09;100.00
48824;BME280;34640;53.590;10.054;2022-10-31T11:37:12;101690.97;;;15.21;100.00
48824;BME280;34640;53.590;10.054;2022-10-31T11:39:49;101692.56;;;15.03;100.00
48824;BME280;34640;53.590;10.054;2022-10-31T11:42:28;101698.38;;;14.97;100.00
48824;BME280;34640;53.590;10.054;2022-10-31T11:45:14;101692.34;;;14.84;100.00
48824;BME280;34640;53.590;10.054;2022-10-31T11:47:49;101699.94;;;14.79;100.00
48824;BME280;34640;53.590;10.054;2022-10-31T11:50:34;101695.22;;;14.74;100.00
48824;BME280;34640;53.590;10.054;2022-10-31T11:53:15;101695.69;;;14.66;100.00
48824;BME280;34640;53.590;10.054;2022-10-31T11:56:01;101698.06;;;14.62;100.00
48824;BME280;34640;53.590;10.054;2022-10-31T11:58:37;101696.50;;;14.80;100.00
48824;BME280;34640;53.590;10.054;2022-10-31T12:01:25;101690.69;;;14.86;100.00
48824;BME280;34640;53.590;10.054;2022-10-31T12:04:05;101682.00;;;15.18;100.00
48824;BME280;34640;53.590;10.054;2022-10-31T12:06:41;101680.47;;;15.21;100.00
48824;BME280;34640;53.590;10.054;2022-10-31T12:09:19;101670.75;;;15.04;100.00
48824;BME280;34640;53.590;10.054;2022-10-31T12:12:05;101672.47;;;15.04;100.00
48824;BME280;34640;53.590;10.054;2022-10-31T12:14:51;101672.41;;;15.02;100.00
48824;BME280;34640;53.590;10.054;2022-10-31T12:17:33;101667.50;;;14.93;100.00
48824;BME280;34640;53.590;10.054;2022-10-31T12:20:18;101670.97;;;14.92;100.00
48824;BME280;34640;53.590;10.054;2022-10-31T12:23:01;101675.84;;;15.01;100.00
48824;BME280;34640;53.590;10.054;2022-10-31T12:25:41;101671.69;;;14.90;100.00
48824;BME280;34640;53.590;10.054;2022-10-31T12:28:29;101673.56;;;14.92;100.00
48824;BME280;34640;53.590;10.054;2022-10-31T12:31:11;101672.50;;;14.89;100.00
48824;BME280;34640;53.590;10.054;2022-10-31T12:33:56;101664.06;;;14.94;100.00
48824;BME280;34640;53.590;10.054;2022-10-31T12:36:41;101666.69;;;14.94;100.00
48824;BME280;34640;53.590;10.054;2022-10-31T12:39:24;101666.34;;;14.88;100.00
48824;BME280;34640;53.590;10.054;2022-10-31T12:42:04;101662.31;;;14.79;100.00
48824;BME280;34640;53.590;10.054;2022-10-31T12:44:55;101667.19;;;14.73;100.00
48824;BME280;34640;53.590;10.054;2022-10-31T12:48:14;101661.41;;;14.78;100.00
48824;BME280;34640;53.590;10.054;2022-10-31T12:50:56;101671.91;;;14.78;100.00
48824;BME280;34640;53.590;10.054;2022-10-31T12:53:45;101671.63;;;14.74;100.00
48824;BME280;34640;53.590;10.054;2022-10-31T12:56:35;101672.09;;;14.66;100.00
48824;BME280;34640;53.590;10.054;2022-10-31T12:59:15;101663.63;;;14.56;100.00
48824;BME280;34640;53.590;10.054;2022-10-31T13:01:55;101654.56;;;14.51;100.00
48824;BME280;34640;53.590;10.054;2022-10-31T13:04:39;101648.97;;;14.45;100.00
48824;BME280;34640;53.590;10.054;2022-10-31T13:07:17;101649.41;;;14.37;100.00
48824;BME280;34640;53.590;10.054;2022-10-31T13:09:58;101641.38;;;14.34;100.00
48824;BME280;34640;53.590;10.054;2022-10-31T13:12:34;101643.81;;;14.31;100.00
48824;BME280;34640;53.590;10.054;2022-10-31T13:15:15;101641.72;;;14.26;100.00
48824;BME280;34640;53.590;10.054;2022-10-31T13:17:53;101645.50;;;14.31;100.00
48824;BME280;34640;53.590;10.054;2022-10-31T13:20:31;101639.09;;;14.26;100.00
48824;BME280;34640;53.590;10.054;2022-10-31T13:23:13;101643.09;;;14.19;100.00
48824;BME280;34640;53.590;10.054;2022-10-31T13:26:12;101630.63;;;14.15;100.00
48824;BME280;34640;53.590;10.054;2022-10-31T13:28:52;101635.59;;;14.11;100.00